createdAt,value
2022-12-08T03:47:02.752Z,98934.81
2022-12-08T05:12:46.294Z,98924.94
2022-12-08T05:15:13.832Z,98926.91
2022-12-08T05:17:40.724Z,98925.28
2022-12-08T05:20:09.275Z,98926.91
2022-12-08T05:22:36.552Z,98922.81
2022-12-08T05:25:04.204Z,98927.31
2022-12-08T05:27:31.172Z,98922.03
2022-12-08T05:29:58.357Z,98918.72
2022-12-08T05:32:25.412Z,98912.47
2022-12-08T05:34:52.744Z,98913.44
2022-12-08T05:37:19.951Z,98916.75
2022-12-08T05:39:47.202Z,98905.53
2022-12-08T05:42:14.508Z,98910.81
2022-12-08T05:44:41.741Z,98915.94
2022-12-08T05:47:08.621Z,98924.66
2022-12-08T05:49:35.829Z,98931.91
2022-12-08T05:52:03.044Z,98932.94
2022-12-08T05:54:30.289Z,98933.13
2022-12-08T05:56:57.252Z,98934.94
2022-12-08T06:04:29.665Z,98935.31
2022-12-08T06:06:56.906Z,98940.56
2022-12-08T06:09:24.046Z,98944.59
2022-12-08T06:11:51.306Z,98944.59
2022-12-08T06:14:18.321Z,98950.84
2022-12-08T06:16:45.611Z,98943.94
2022-12-08T07:40:45.973Z,98988.69
2022-12-08T07:43:13.462Z,98986.03
2022-12-08T07:46:31.625Z,98984.28
2022-12-08T07:54:12.585Z,98989.47
2022-12-08T08:11:26.672Z,98989.16
2022-12-08T08:13:53.651Z,98996.34
2022-12-08T08:16:21.475Z,98997.59
2022-12-08T08:18:51.123Z,98993.97
2022-12-08T08:24:07.612Z,98993.84
2022-12-08T08:26:36.585Z,98988.81
2022-12-08T08:29:05.183Z,98992.53
2022-12-08T08:31:32.564Z,98978.75
2022-12-08T08:34:04.807Z,98981.66
2022-12-08T08:36:33.166Z,98981.91
2022-12-08T08:39:00.165Z,98979.72
2022-12-08T08:41:27.368Z,98987.06
2022-12-08T08:43:54.985Z,98979.41
2022-12-08T08:46:22.297Z,98984.94
2022-12-08T08:48:49.404Z,98984.16
2022-12-08T08:51:16.738Z,98978.28
2022-12-08T08:53:43.786Z,98983.03
2022-12-08T08:56:15.672Z,98977.16
2022-12-08T08:58:43.003Z,98979.22
2022-12-08T09:01:20.697Z,98972.38
2022-12-08T10:19:18.719Z,98916.78
2022-12-08T10:21:46.266Z,98910.88
2022-12-08T10:24:40.675Z,98907.41
2022-12-08T10:27:12.491Z,98909.22
2022-12-08T10:29:41.017Z,98906.38
2022-12-08T10:32:20.246Z,98911.66
2022-12-08T10:35:06.080Z,98904.16
2022-12-08T10:37:34.473Z,98908.41
2022-12-08T10:40:03.091Z,98901.50
2022-12-08T10:42:46.938Z,98897.81
2022-12-08T10:45:22.140Z,98901.09
2022-12-08T10:48:13.179Z,98902.72
2022-12-08T10:50:52.696Z,98900.28
2022-12-08T10:53:23.408Z,98899.06
2022-12-08T10:56:02.715Z,98898.25
2022-12-08T10:59:05.614Z,98883.19
2022-12-08T11:01:39.980Z,98890.09
2022-12-08T12:00:22.753Z,98861.63
2022-12-08T12:03:06.522Z,98872.06
2022-12-08T12:06:24.247Z,98865.72
2022-12-08T12:10:16.795Z,98863.91
2022-12-08T13:01:07.346Z,98837.63
2022-12-08T13:37:13.217Z,98827.38
2022-12-08T13:39:40.490Z,98833.09
2022-12-08T13:42:52.065Z,98824.53
2022-12-08T13:45:58.910Z,98837.53
2022-12-08T14:03:19.708Z,98839.19
2022-12-08T14:06:11.588Z,98839.97
2022-12-08T14:09:27.747Z,98852.19
2022-12-08T14:12:19.623Z,98838.75
2022-12-08T14:25:54.062Z,98853.00
2022-12-08T14:28:21.860Z,98849.72
2022-12-08T14:30:50.184Z,98850.16
2022-12-08T14:33:17.880Z,98841.56
2022-12-08T14:35:56.131Z,98843.59
2022-12-08T14:38:26.029Z,98841.97
2022-12-08T14:41:09.344Z,98843.19
2022-12-08T14:43:36.871Z,98840.72
2022-12-08T14:46:20.349Z,98841.94
2022-12-08T14:48:48.173Z,98843.16
2022-12-08T14:51:23.775Z,98843.16
2022-12-08T14:54:13.249Z,98848.44
2022-12-08T14:56:48.553Z,98846.41
2022-12-08T14:59:31.155Z,98849.50
2022-12-08T15:02:16.065Z,98853.97
2022-12-08T15:04:48.765Z,98853.97
2022-12-08T15:07:21.716Z,98853.97
2022-12-08T16:46:57.268Z,98806.34
2022-12-08T16:49:24.897Z,98807.50
2022-12-08T16:51:51.796Z,98803.41
2022-12-08T16:54:19.068Z,98800.13
2022-12-08T16:56:45.965Z,98808.69
2022-12-08T16:59:13.236Z,98808.53
2022-12-08T17:01:40.564Z,98799.56
2022-12-08T17:04:30.483Z,98793.28
2022-12-08T17:06:54.776Z,98797.13
2022-12-08T17:09:22.048Z,98802.59
2022-12-08T17:11:52.359Z,98792.84
2022-12-08T17:14:20.171Z,98798.72
2022-12-08T17:16:47.360Z,98798.09
2022-12-08T17:19:20.724Z,98792.19
2022-12-08T17:21:52.855Z,98795.84
2022-12-08T17:24:22.194Z,98792.81
2022-12-08T17:26:51.532Z,98792.19
2022-12-08T17:29:18.727Z,98792.38
2022-12-08T17:31:46.194Z,98795.84
2022-12-08T17:34:13.746Z,98800.13
2022-12-08T17:36:40.736Z,98805.03
2022-12-08T17:39:13.343Z,98810.50
2022-12-08T17:41:43.494Z,98802.34
2022-12-08T17:44:19.130Z,98799.91
2022-12-08T17:46:52.428Z,98800.53
2022-12-08T17:49:25.242Z,98800.53
2022-12-08T17:51:55.719Z,98797.25
2022-12-08T17:54:23.319Z,98789.09
2022-12-08T17:56:50.449Z,98796.41
2022-12-08T17:59:18.329Z,98789.84
2022-12-08T18:01:45.585Z,98799.22
2022-12-08T18:04:13.311Z,98801.09
2022-12-08T18:06:40.692Z,98792.78
2022-12-08T18:09:08.097Z,98788.28
2022-12-08T18:11:46.296Z,98787.44
2022-12-08T18:14:15.653Z,98784.81
2022-12-08T18:16:45.639Z,98778.53
2022-12-08T18:19:14.957Z,98775.25
2022-12-08T18:21:43.811Z,98767.94
2022-12-08T18:24:23.278Z,98771.59
2022-12-08T18:26:55.175Z,98765.09
2022-12-08T18:29:23.477Z,98764.28
2022-12-08T18:31:51.941Z,98769.19
2022-12-08T18:34:19.245Z,98763.91
2022-12-08T18:36:46.904Z,98766.38
2022-12-08T18:39:28.611Z,98774.28
2022-12-08T18:41:58.533Z,98769.19
2022-12-08T18:44:25.864Z,98763.91
2022-12-08T18:46:52.855Z,98762.28
2022-12-08T18:49:20.678Z,98761.47
2022-12-08T18:51:47.934Z,98756.19
2022-12-08T18:54:15.200Z,98753.31
2022-12-08T18:56:42.172Z,98750.69
2022-12-08T18:59:12.463Z,98758.59
2022-12-08T19:01:40.657Z,98760.44
2022-12-08T19:04:28.085Z,98756.59
2022-12-08T19:06:56.972Z,98765.91
2022-12-08T19:09:26.856Z,98759.00
2022-12-08T19:11:55.329Z,98765.47
2022-12-08T19:14:27.796Z,98755.72
2022-12-08T19:16:58.999Z,98754.72
2022-12-08T19:19:27.878Z,98755.72
2022-12-08T19:21:55.852Z,98755.56
2022-12-08T20:34:17.282Z,98741.06
2022-12-08T20:36:45.044Z,98734.13
2022-12-08T20:39:15.660Z,98730.47
2022-12-08T20:41:44.900Z,98740.44
2022-12-08T20:44:12.629Z,98736.16
2022-12-08T20:46:42.779Z,98737.78
2022-12-08T20:49:13.694Z,98743.09
2022-12-08T20:51:41.863Z,98742.25
2022-12-08T20:54:10.909Z,98750.41
2022-12-08T20:56:47.949Z,98736.53
2022-12-08T20:59:17.850Z,98736.16
2022-12-08T21:01:45.231Z,98739.00
2022-12-08T21:04:13.514Z,98730.03
2022-12-08T21:06:40.923Z,98738.78
2022-12-08T21:09:08.748Z,98732.50
2022-12-08T21:11:36.231Z,98740.63
2022-12-08T21:14:04.553Z,98738.19
2022-12-08T21:16:31.799Z,98734.91
2022-12-08T21:18:59.474Z,98731.66
2022-12-08T21:21:26.548Z,98738.94
2022-12-08T21:23:54.182Z,98737.72
2022-12-08T21:26:25.830Z,98742.16
2022-12-08T21:28:54.744Z,98746.25
2022-12-08T21:31:22.297Z,98744.63
2022-12-08T22:15:40.289Z,98718.03
2022-12-08T23:24:51.096Z,98708.88
